Mattheos I — P3YV9 — position and weather

sailwx.info

Track history (hours):
 
Tides and Currents Weather Stations Pressure Air Temp Water Temp Dewpoint Dewpoint Depression Visibility Wind Speed Wind Dir Waves Ship Positions

Mattheos I

Last reported at 2017-Aug-23 14:03 UTC. Time now 2017-Oct-19 21:59 UTC.
Position N 32°53' E 030°40'.
Warning: this ship's position is 57 days out of date.

Length 183 m; draft 12 m.

Type: Tanker. MMSI: 209632000.

Date/timePositionNaut miles runAvg speedWind from/ knotsBaromVisibWave heightAir tempDewpointWater temp
2017-Aug-23 14:03N 32°53' E 030°40'1112.7
2017-Aug-23 13:12N 33°01' E 030°32'34712.5
2017-Aug-22 09:21N 37°25' E 025°55'412.0
2017-Aug-22 09:00N 37°28' E 025°53'  
2017-Aug-19 22:27N 42°18' E 029°30'612.7
2017-Aug-19 22:01N 42°23' E 029°32'612.6
2017-Aug-19 21:30N 42°29' E 029°35'612.5
2017-Aug-19 21:00N 42°35' E 029°37'612.4
2017-Aug-19 20:31N 42°41' E 029°40'612.5
2017-Aug-19 20:00N 42°47' E 029°42'612.4
2017-Aug-19 19:31N 42°53' E 029°45'612.4
2017-Aug-19 19:01N 42°59' E 029°47'612.4
2017-Aug-19 18:31N 43°05' E 029°49'612.6
2017-Aug-19 18:01N 43°11' E 029°50'612.4
2017-Aug-19 17:30N 43°17' E 029°52'2012.4
2017-Aug-19 15:51N 43°36' E 030°02'1112.8
2017-Aug-19 14:59N 43°47' E 030°07'3012.2
2017-Aug-19 12:31N 44°16' E 030°18'011.8
2017-Aug-19 12:29N 44°16' E 030°18'612.0
2017-Aug-19 12:00N 44°22' E 030°21'612.0
2017-Aug-19 11:31N 44°27' E 030°23'611.9
2017-Aug-19 11:00N 44°33' E 030°25'612.1
2017-Aug-19 10:30N 44°39' E 030°28'612.2
2017-Aug-19 10:00N 44°45' E 030°31'612.3
2017-Aug-19 09:30N 44°51' E 030°33'612.5
2017-Aug-19 09:00N 44°57' E 030°35'612.2
2017-Aug-19 08:30N 45°02' E 030°38'612.3
2017-Aug-19 08:00N 45°08' E 030°40'612.3
2017-Aug-19 07:30N 45°14' E 030°43'612.3
2017-Aug-19 07:00N 45°20' E 030°45'612.2
2017-Aug-19 06:30N 45°26' E 030°48'612.2
2017-Aug-19 06:01N 45°32' E 030°50'612.2
2017-Aug-19 05:31N 45°38' E 030°53'612.1
2017-Aug-19 04:59N 45°44' E 030°55'612.1
2017-Aug-19 04:30N 45°49' E 030°58'612.2
2017-Aug-19 04:01N 45°55' E 031°00'612.2
2017-Aug-19 03:31N 46°01' E 031°03'612.1
2017-Aug-19 03:00N 46°07' E 031°05'611.5
2017-Aug-19 02:30N 46°12' E 031°01'511.1
2017-Aug-19 02:00N 46°17' E 031°03'4 8.7
2017-Aug-19 01:31N 46°21' E 031°06'1 1.7
2017-Aug-19 01:01N 46°22' E 031°06'0 0.0
2017-Aug-19 00:30N 46°22' E 031°06'0 0.0
2017-Aug-19 00:01N 46°22' E 031°06'0 0.0
2017-Aug-18 23:31N 46°22' E 031°06'0 0.0
2017-Aug-18 23:01N 46°22' E 031°06'0 0.0
2017-Aug-18 22:31N 46°22' E 031°06'0 0.0
2017-Aug-18 22:01N 46°22' E 031°06'0 0.0
2017-Aug-18 21:31N 46°22' E 031°06'0 0.0
2017-Aug-18 21:00N 46°22' E 031°06'0 0.0
2017-Aug-18 20:31N 46°22' E 031°06'0 0.0
2017-Aug-18 20:01N 46°22' E 031°06'0 0.0
2017-Aug-18 19:31N 46°22' E 031°06'0 0.0
2017-Aug-18 19:00N 46°22' E 031°07'0 0.1
2017-Aug-18 18:30N 46°22' E 031°07'0 0.1
2017-Aug-18 17:42N 46°22' E 031°07'0 0.0
2017-Aug-18 17:31N 46°22' E 031°07'0 0.0
2017-Aug-18 17:00N 46°22' E 031°07'0 0.1
2017-Aug-18 16:27N 46°22' E 031°07'0 0.1
2017-Aug-18 16:01N 46°22' E 031°07'0 0.0
2017-Aug-18 15:30N 46°22' E 031°07'0 0.2
2017-Aug-18 15:01N 46°22' E 031°07'0 0.3
2017-Aug-18 14:30N 46°22' E 031°06'3 3.1
2017-Aug-18 13:31N 46°21' E 031°02'4 9.0
2017-Aug-18 13:00N 46°17' E 030°60'5 9.4
2017-Aug-18 12:30N 46°15' E 030°53'710.4
2017-Aug-18 11:49N 46°18' E 030°43'3 4.8
2017-Aug-18 11:11N 46°19' E 030°39'  
2017-Aug-13 22:52N 46°19' E 030°39'2 2.7
2017-Aug-13 21:59N 46°19' E 030°43'1 1.2
2017-Aug-13 20:53N 46°18' E 030°44'1 0.3
2017-Aug-13 17:18N 46°17' E 030°44'0 0.0
2017-Aug-13 17:01N 46°17' E 030°44'0 0.0
2017-Aug-13 16:14N 46°17' E 030°44'0 0.0
2017-Aug-13 15:56N 46°17' E 030°44'0 0.1
2017-Aug-13 15:30N 46°17' E 030°44'0 0.0
2017-Aug-13 14:52N 46°17' E 030°44'0 0.0
2017-Aug-13 14:30N 46°17' E 030°44'  
Track history (hours):
 
Tides and Currents Weather Stations Pressure Air Temp Water Temp Dewpoint Dewpoint Depression Visibility Wind Speed Wind Dir Waves Ship Positions

Mattheos I

Last reported at 2017-Aug-23 14:03 UTC. Time now 2017-Oct-19 21:59 UTC.
Position N 32°53' E 030°40'.
Warning: this ship's position is 57 days out of date.

Length 183 m; draft 12 m.

Type: Tanker. MMSI: 209632000.

Date/timePositionNaut miles runAvg speedWind from/ knotsBaromVisibWave heightAir tempDewpointWater temp
2017-Aug-23 14:03N 32°53' E 030°40'1112.7
2017-Aug-23 13:12N 33°01' E 030°32'34712.5
2017-Aug-22 09:21N 37°25' E 025°55'412.0
2017-Aug-22 09:00N 37°28' E 025°53'  
2017-Aug-19 22:27N 42°18' E 029°30'612.7
2017-Aug-19 22:01N 42°23' E 029°32'612.6
2017-Aug-19 21:30N 42°29' E 029°35'612.5
2017-Aug-19 21:00N 42°35' E 029°37'612.4
2017-Aug-19 20:31N 42°41' E 029°40'612.5
2017-Aug-19 20:00N 42°47' E 029°42'612.4
2017-Aug-19 19:31N 42°53' E 029°45'612.4
2017-Aug-19 19:01N 42°59' E 029°47'612.4
2017-Aug-19 18:31N 43°05' E 029°49'612.6
2017-Aug-19 18:01N 43°11' E 029°50'612.4
2017-Aug-19 17:30N 43°17' E 029°52'2012.4
2017-Aug-19 15:51N 43°36' E 030°02'1112.8
2017-Aug-19 14:59N 43°47' E 030°07'3012.2
2017-Aug-19 12:31N 44°16' E 030°18'011.8
2017-Aug-19 12:29N 44°16' E 030°18'612.0
2017-Aug-19 12:00N 44°22' E 030°21'612.0
2017-Aug-19 11:31N 44°27' E 030°23'611.9
2017-Aug-19 11:00N 44°33' E 030°25'612.1
2017-Aug-19 10:30N 44°39' E 030°28'612.2
2017-Aug-19 10:00N 44°45' E 030°31'612.3
2017-Aug-19 09:30N 44°51' E 030°33'612.5
2017-Aug-19 09:00N 44°57' E 030°35'612.2
2017-Aug-19 08:30N 45°02' E 030°38'612.3
2017-Aug-19 08:00N 45°08' E 030°40'612.3
2017-Aug-19 07:30N 45°14' E 030°43'612.3
2017-Aug-19 07:00N 45°20' E 030°45'612.2
2017-Aug-19 06:30N 45°26' E 030°48'612.2
2017-Aug-19 06:01N 45°32' E 030°50'612.2
2017-Aug-19 05:31N 45°38' E 030°53'612.1
2017-Aug-19 04:59N 45°44' E 030°55'612.1
2017-Aug-19 04:30N 45°49' E 030°58'612.2
2017-Aug-19 04:01N 45°55' E 031°00'612.2
2017-Aug-19 03:31N 46°01' E 031°03'612.1
2017-Aug-19 03:00N 46°07' E 031°05'611.5
2017-Aug-19 02:30N 46°12' E 031°01'511.1
2017-Aug-19 02:00N 46°17' E 031°03'4 8.7
2017-Aug-19 01:31N 46°21' E 031°06'1 1.7
2017-Aug-19 01:01N 46°22' E 031°06'0 0.0
2017-Aug-19 00:30N 46°22' E 031°06'0 0.0
2017-Aug-19 00:01N 46°22' E 031°06'0 0.0
2017-Aug-18 23:31N 46°22' E 031°06'0 0.0
2017-Aug-18 23:01N 46°22' E 031°06'0 0.0
2017-Aug-18 22:31N 46°22' E 031°06'0 0.0
2017-Aug-18 22:01N 46°22' E 031°06'0 0.0
2017-Aug-18 21:31N 46°22' E 031°06'0 0.0
2017-Aug-18 21:00N 46°22' E 031°06'0 0.0
2017-Aug-18 20:31N 46°22' E 031°06'0 0.0
2017-Aug-18 20:01N 46°22' E 031°06'0 0.0
2017-Aug-18 19:31N 46°22' E 031°06'0 0.0
2017-Aug-18 19:00N 46°22' E 031°07'0 0.1
2017-Aug-18 18:30N 46°22' E 031°07'0 0.1
2017-Aug-18 17:42N 46°22' E 031°07'0 0.0
2017-Aug-18 17:31N 46°22' E 031°07'0 0.0
2017-Aug-18 17:00N 46°22' E 031°07'0 0.1
2017-Aug-18 16:27N 46°22' E 031°07'0 0.1
2017-Aug-18 16:01N 46°22' E 031°07'0 0.0
2017-Aug-18 15:30N 46°22' E 031°07'0 0.2
2017-Aug-18 15:01N 46°22' E 031°07'0 0.3
2017-Aug-18 14:30N 46°22' E 031°06'3 3.1
2017-Aug-18 13:31N 46°21' E 031°02'4 9.0
2017-Aug-18 13:00N 46°17' E 030°60'5 9.4
2017-Aug-18 12:30N 46°15' E 030°53'710.4
2017-Aug-18 11:49N 46°18' E 030°43'3 4.8
2017-Aug-18 11:11N 46°19' E 030°39'  
2017-Aug-13 22:52N 46°19' E 030°39'2 2.7
2017-Aug-13 21:59N 46°19' E 030°43'1 1.2
2017-Aug-13 20:53N 46°18' E 030°44'1 0.3
2017-Aug-13 17:18N 46°17' E 030°44'0 0.0
2017-Aug-13 17:01N 46°17' E 030°44'0 0.0
2017-Aug-13 16:14N 46°17' E 030°44'0 0.0
2017-Aug-13 15:56N 46°17' E 030°44'0 0.1
2017-Aug-13 15:30N 46°17' E 030°44'0 0.0
2017-Aug-13 14:52N 46°17' E 030°44'0 0.0
2017-Aug-13 14:30N 46°17' E 030°44'  

Dump ship's entire track history